sensor_id;sensor_type;location;lat;lon;timestamp;pressure;altitude;pressure_sealevel;temperature;humidity
45991;BME280;31721;41.740;-88.000;2022-08-21T17:00:30;98976.94;;;24.72;57.60
45991;BME280;31721;41.740;-88.000;2022-08-21T17:02:57;98979.35;;;24.84;56.36
45991;BME280;31721;41.740;-88.000;2022-08-21T17:05:25;98980.11;;;25.14;56.35
45991;BME280;31721;41.740;-88.000;2022-08-21T17:07:53;98980.69;;;25.27;55.31
45991;BME280;31721;41.740;-88.000;2022-08-21T17:10:21;98980.58;;;25.29;55.05
45991;BME280;31721;41.740;-88.000;2022-08-21T17:12:53;98980.56;;;25.60;54.00
45991;BME280;31721;41.740;-88.000;2022-08-21T17:15:25;98981.90;;;25.30;53.08
45991;BME280;31721;41.740;-88.000;2022-08-21T21:18:11;98918.88;;;24.49;50.28
45991;BME280;31721;41.740;-88.000;2022-08-21T21:20:47;98915.52;;;25.20;49.04
45991;BME280;31721;41.740;-88.000;2022-08-21T21:23:22;98913.39;;;25.43;48.10
45991;BME280;31721;41.740;-88.000;2022-08-21T21:25:58;98914.54;;;25.53;47.47
45991;BME280;31721;41.740;-88.000;2022-08-21T21:28:37;98912.27;;;25.67;47.29
45991;BME280;31721;41.740;-88.000;2022-08-21T21:31:07;98912.86;;;25.85;47.54
45991;BME280;31721;41.740;-88.000;2022-08-21T21:33:34;98918.68;;;25.91;47.11
45991;BME280;31721;41.740;-88.000;2022-08-21T21:36:10;98919.62;;;25.80;46.23
45991;BME280;31721;41.740;-88.000;2022-08-21T21:38:44;98922.37;;;26.02;46.13
45991;BME280;31721;41.740;-88.000;2022-08-21T21:41:21;98925.66;;;25.99;46.27
45991;BME280;31721;41.740;-88.000;2022-08-21T21:44:02;98924.68;;;26.09;45.62
45991;BME280;31721;41.740;-88.000;2022-08-21T21:46:38;98923.75;;;26.13;46.13
45991;BME280;31721;41.740;-88.000;2022-08-21T21:49:41;98923.45;;;26.22;46.26
45991;BME280;31721;41.740;-88.000;2022-08-21T21:52:27;98921.30;;;26.12;46.24
45991;BME280;31721;41.740;-88.000;2022-08-21T21:55:08;98919.11;;;26.17;46.66
45991;BME280;31721;41.740;-88.000;2022-08-21T21:57:50;98916.31;;;26.23;46.47
45991;BME280;31721;41.740;-88.000;2022-08-21T22:00:23;98917.43;;;26.31;45.55
45991;BME280;31721;41.740;-88.000;2022-08-21T22:02:59;98921.04;;;26.49;45.58
45991;BME280;31721;41.740;-88.000;2022-08-21T22:05:42;98918.37;;;26.42;45.32
45991;BME280;31721;41.740;-88.000;2022-08-21T22:08:20;98920.67;;;26.31;44.99
45991;BME280;31721;41.740;-88.000;2022-08-21T22:10:55;98928.67;;;26.20;45.74
45991;BME280;31721;41.740;-88.000;2022-08-21T22:13:29;98927.15;;;26.23;46.07
45991;BME280;31721;41.740;-88.000;2022-08-21T22:16:00;98927.71;;;26.26;45.71
45991;BME280;31721;41.740;-88.000;2022-08-21T22:18:31;98926.04;;;26.28;45.53
45991;BME280;31721;41.740;-88.000;2022-08-21T22:21:07;98926.99;;;26.17;45.86
45991;BME280;31721;41.740;-88.000;2022-08-21T22:23:42;98931.92;;;26.12;45.54
45991;BME280;31721;41.740;-88.000;2022-08-21T22:26:14;98937.43;;;26.01;45.66
45991;BME280;31721;41.740;-88.000;2022-08-21T22:28:46;98935.05;;;25.94;45.50
45991;BME280;31721;41.740;-88.000;2022-08-21T22:31:17;98935.72;;;25.86;45.60
45991;BME280;31721;41.740;-88.000;2022-08-21T22:34:05;98935.58;;;25.94;45.62
45991;BME280;31721;41.740;-88.000;2022-08-21T22:36:35;98938.64;;;25.77;45.76
45991;BME280;31721;41.740;-88.000;2022-08-21T22:39:06;98939.24;;;25.78;45.83
45991;BME280;31721;41.740;-88.000;2022-08-21T22:41:39;98942.60;;;25.79;45.86
45991;BME280;31721;41.740;-88.000;2022-08-21T22:44:20;98942.12;;;25.66;45.75
45991;BME280;31721;41.740;-88.000;2022-08-21T22:46:51;98941.55;;;25.62;46.06
45991;BME280;31721;41.740;-88.000;2022-08-21T22:49:30;98942.97;;;25.38;45.90
45991;BME280;31721;41.740;-88.000;2022-08-21T22:52:10;98939.69;;;25.05;45.97
45991;BME280;31721;41.740;-88.000;2022-08-21T22:54:46;98939.91;;;25.22;46.39
45991;BME280;31721;41.740;-88.000;2022-08-21T22:57:23;98936.00;;;25.27;46.60
45991;BME280;31721;41.740;-88.000;2022-08-21T22:59:55;98939.63;;;25.27;46.81
45991;BME280;31721;41.740;-88.000;2022-08-21T23:02:31;98940.39;;;25.29;46.85
45991;BME280;31721;41.740;-88.000;2022-08-21T23:05:03;98938.60;;;25.18;46.59
45991;BME280;31721;41.740;-88.000;2022-08-21T23:07:35;98942.81;;;25.19;46.65
45991;BME280;31721;41.740;-88.000;2022-08-21T23:10:07;98944.43;;;25.02;46.66
45991;BME280;31721;41.740;-88.000;2022-08-21T23:12:38;98940.99;;;25.18;46.67
45991;BME280;31721;41.740;-88.000;2022-08-21T23:15:09;98938.39;;;25.16;46.86
45991;BME280;31721;41.740;-88.000;2022-08-21T23:17:42;98939.04;;;25.14;46.76
45991;BME280;31721;41.740;-88.000;2022-08-21T23:20:20;98943.60;;;24.98;46.69
45991;BME280;31721;41.740;-88.000;2022-08-21T23:22:58;98941.54;;;25.01;46.81
45991;BME280;31721;41.740;-88.000;2022-08-21T23:25:39;98942.06;;;24.87;47.04
45991;BME280;31721;41.740;-88.000;2022-08-21T23:28:20;98941.07;;;24.92;47.53
45991;BME280;31721;41.740;-88.000;2022-08-21T23:30:56;98939.37;;;24.81;47.38
45991;BME280;31721;41.740;-88.000;2022-08-21T23:33:38;98938.19;;;24.85;47.19
45991;BME280;31721;41.740;-88.000;2022-08-21T23:36:21;98941.82;;;24.71;47.25
45991;BME280;31721;41.740;-88.000;2022-08-21T23:39:05;98942.69;;;24.61;47.38
45991;BME280;31721;41.740;-88.000;2022-08-21T23:41:43;98940.71;;;24.51;47.55
45991;BME280;31721;41.740;-88.000;2022-08-21T23:44:25;98942.91;;;24.58;47.72
45991;BME280;31721;41.740;-88.000;2022-08-21T23:47:09;98948.01;;;24.55;47.94
45991;BME280;31721;41.740;-88.000;2022-08-21T23:49:48;98946.12;;;24.58;48.05
45991;BME280;31721;41.740;-88.000;2022-08-21T23:52:25;98948.27;;;24.47;48.15
45991;BME280;31721;41.740;-88.000;2022-08-21T23:55:12;98952.66;;;24.54;48.17
45991;BME280;31721;41.740;-88.000;2022-08-21T23:57:51;98959.17;;;24.44;48.20
